sensor_id;sensor_type;location;lat;lon;timestamp;P1;durP1;ratioP1;P2;durP2;ratioP2
20101;SDS011;10210;52.284;9.892;2023-04-02T00:00:32;11.40;;;4.53;;
20101;SDS011;10210;52.284;9.892;2023-04-02T00:08:57;12.37;;;4.40;;
20101;SDS011;10210;52.284;9.892;2023-04-02T00:14:14;12.57;;;4.63;;
20101;SDS011;10210;52.284;9.892;2023-04-02T00:16:40;12.43;;;4.57;;
20101;SDS011;10210;52.284;9.892;2023-04-02T00:19:11;12.30;;;4.73;;
20101;SDS011;10210;52.284;9.892;2023-04-02T00:21:44;14.20;;;5.07;;
20101;SDS011;10210;52.284;9.892;2023-04-02T00:24:15;13.33;;;4.67;;
20101;SDS011;10210;52.284;9.892;2023-04-02T00:26:45;14.57;;;4.63;;
20101;SDS011;10210;52.284;9.892;2023-04-02T00:29:15;12.23;;;4.43;;
20101;SDS011;10210;52.284;9.892;2023-04-02T00:31:44;14.17;;;4.77;;
20101;SDS011;10210;52.284;9.892;2023-04-02T00:34:16;11.87;;;4.53;;
20101;SDS011;10210;52.284;9.892;2023-04-02T00:36:51;14.03;;;5.03;;
20101;SDS011;10210;52.284;9.892;2023-04-02T00:39:19;12.67;;;4.73;;
20101;SDS011;10210;52.284;9.892;2023-04-02T00:41:50;13.17;;;4.73;;
20101;SDS011;10210;52.284;9.892;2023-04-02T00:44:28;15.47;;;4.50;;
20101;SDS011;10210;52.284;9.892;2023-04-02T00:47:06;14.33;;;4.63;;
20101;SDS011;10210;52.284;9.892;2023-04-02T00:52:44;12.40;;;4.33;;
20101;SDS011;10210;52.284;9.892;2023-04-02T00:55:16;12.67;;;4.30;;
20101;SDS011;10210;52.284;9.892;2023-04-02T00:57:49;14.13;;;4.30;;
20101;SDS011;10210;52.284;9.892;2023-04-02T01:00:49;13.57;;;4.47;;
20101;SDS011;10210;52.284;9.892;2023-04-02T01:05:43;11.87;;;4.33;;
20101;SDS011;10210;52.284;9.892;2023-04-02T01:22:35;12.13;;;3.83;;
20101;SDS011;10210;52.284;9.892;2023-04-02T01:31:47;11.03;;;3.60;;
20101;SDS011;10210;52.284;9.892;2023-04-02T01:34:16;11.30;;;3.50;;
20101;SDS011;10210;52.284;9.892;2023-04-02T01:37:01;11.03;;;3.70;;
20101;SDS011;10210;52.284;9.892;2023-04-02T01:40:02;10.17;;;3.40;;
20101;SDS011;10210;52.284;9.892;2023-04-02T01:42:47;12.30;;;3.50;;
20101;SDS011;10210;52.284;9.892;2023-04-02T01:45:38;10.63;;;3.50;;
20101;SDS011;10210;52.284;9.892;2023-04-02T01:48:04;13.43;;;3.50;;
20101;SDS011;10210;52.284;9.892;2023-04-02T01:50:49;12.00;;;3.63;;
20101;SDS011;10210;52.284;9.892;2023-04-02T01:53:20;14.20;;;3.90;;
20101;SDS011;10210;52.284;9.892;2023-04-02T01:55:49;10.57;;;3.27;;
20101;SDS011;10210;52.284;9.892;2023-04-02T01:58:24;11.67;;;3.70;;
20101;SDS011;10210;52.284;9.892;2023-04-02T02:03:27;13.33;;;3.50;;
20101;SDS011;10210;52.284;9.892;2023-04-02T02:05:54;12.97;;;3.63;;
20101;SDS011;10210;52.284;9.892;2023-04-02T02:08:32;12.53;;;3.80;;
20101;SDS011;10210;52.284;9.892;2023-04-02T02:11:05;12.20;;;3.63;;
20101;SDS011;10210;52.284;9.892;2023-04-02T02:13:38;10.90;;;3.50;;
20101;SDS011;10210;52.284;9.892;2023-04-02T02:16:05;10.13;;;3.57;;
20101;SDS011;10210;52.284;9.892;2023-04-02T02:18:38;8.60;;;3.70;;
20101;SDS011;10210;52.284;9.892;2023-04-02T02:21:04;8.23;;;3.13;;
20101;SDS011;10210;52.284;9.892;2023-04-02T02:23:34;11.27;;;3.63;;
20101;SDS011;10210;52.284;9.892;2023-04-02T02:25:59;12.97;;;3.40;;
20101;SDS011;10210;52.284;9.892;2023-04-02T02:28:26;8.97;;;3.10;;
20101;SDS011;10210;52.284;9.892;2023-04-02T02:31:04;7.93;;;2.83;;
20101;SDS011;10210;52.284;9.892;2023-04-02T02:33:38;8.13;;;2.90;;
20101;SDS011;10210;52.284;9.892;2023-04-02T02:36:15;8.77;;;2.80;;
20101;SDS011;10210;52.284;9.892;2023-04-02T02:41:40;10.93;;;3.23;;
20101;SDS011;10210;52.284;9.892;2023-04-02T02:44:12;9.83;;;3.00;;
20101;SDS011;10210;52.284;9.892;2023-04-02T02:46:48;10.73;;;2.97;;
20101;SDS011;10210;52.284;9.892;2023-04-02T02:49:26;9.47;;;2.73;;
20101;SDS011;10210;52.284;9.892;2023-04-02T02:54:35;9.23;;;3.00;;
20101;SDS011;10210;52.284;9.892;2023-04-02T02:57:08;8.40;;;2.63;;
20101;SDS011;10210;52.284;9.892;2023-04-02T02:59:41;9.63;;;2.70;;
20101;SDS011;10210;52.284;9.892;2023-04-02T03:02:09;7.83;;;2.80;;
20101;SDS011;10210;52.284;9.892;2023-04-02T03:04:35;9.67;;;2.80;;
20101;SDS011;10210;52.284;9.892;2023-04-02T03:07:02;11.23;;;2.70;;
20101;SDS011;10210;52.284;9.892;2023-04-02T03:15:05;8.17;;;2.60;;
20101;SDS011;10210;52.284;9.892;2023-04-02T03:17:57;10.57;;;2.83;;
20101;SDS011;10210;52.284;9.892;2023-04-02T03:24:09;8.23;;;2.63;;
20101;SDS011;10210;52.284;9.892;2023-04-02T03:26:51;9.03;;;2.60;;
20101;SDS011;10210;52.284;9.892;2023-04-02T03:29:32;7.70;;;2.30;;
20101;SDS011;10210;52.284;9.892;2023-04-02T03:32:11;7.53;;;2.20;;
20101;SDS011;10210;52.284;9.892;2023-04-02T03:35:00;8.43;;;2.70;;
20101;SDS011;10210;52.284;9.892;2023-04-02T03:37:41;8.63;;;2.70;;
20101;SDS011;10210;52.284;9.892;2023-04-02T03:40:20;9.63;;;2.80;;
20101;SDS011;10210;52.284;9.892;2023-04-02T03:43:00;8.30;;;2.50;;
20101;SDS011;10210;52.284;9.892;2023-04-02T03:45:47;8.63;;;2.83;;
20101;SDS011;10210;52.284;9.892;2023-04-02T03:48:32;8.00;;;2.30;;
20101;SDS011;10210;52.284;9.892;2023-04-02T03:51:13;9.67;;;2.40;;
20101;SDS011;10210;52.284;9.892;2023-04-02T03:53:46;8.50;;;2.50;;
20101;SDS011;10210;52.284;9.892;2023-04-02T03:59:02;8.07;;;2.40;;
20101;SDS011;10210;52.284;9.892;2023-04-02T04:02:18;7.53;;;2.20;;
20101;SDS011;10210;52.284;9.892;2023-04-02T04:05:19;5.87;;;2.40;;
20101;SDS011;10210;52.284;9.892;2023-04-02T04:07:53;8.10;;;2.27;;
20101;SDS011;10210;52.284;9.892;2023-04-02T04:10:25;9.33;;;2.53;;
20101;SDS011;10210;52.284;9.892;2023-04-02T04:12:54;10.73;;;2.50;;
20101;SDS011;10210;52.284;9.892;2023-04-02T04:18:09;7.77;;;2.10;;
20101;SDS011;10210;52.284;9.892;2023-04-02T04:20:48;8.83;;;2.30;;
20101;SDS011;10210;52.284;9.892;2023-04-02T04:23:29;6.77;;;2.27;;
20101;SDS011;10210;52.284;9.892;2023-04-02T04:26:06;8.63;;;2.73;;
20101;SDS011;10210;52.284;9.892;2023-04-02T04:31:55;8.13;;;2.30;;
20101;SDS011;10210;52.284;9.892;2023-04-02T04:34:48;5.00;;;2.30;;
20101;SDS011;10210;52.284;9.892;2023-04-02T04:37:22;7.93;;;2.17;;
20101;SDS011;10210;52.284;9.892;2023-04-02T04:39:58;8.20;;;2.33;;
20101;SDS011;10210;52.284;9.892;2023-04-02T04:42:48;6.63;;;2.13;;
20101;SDS011;10210;52.284;9.892;2023-04-02T04:45:40;5.83;;;2.17;;
20101;SDS011;10210;52.284;9.892;2023-04-02T04:50:58;9.57;;;2.30;;
20101;SDS011;10210;52.284;9.892;2023-04-02T04:53:33;9.00;;;2.30;;
20101;SDS011;10210;52.284;9.892;2023-04-02T04:56:11;7.27;;;2.20;;
20101;SDS011;10210;52.284;9.892;2023-04-02T04:58:45;6.37;;;2.10;;
20101;SDS011;10210;52.284;9.892;2023-04-02T05:01:22;6.87;;;2.23;;
20101;SDS011;10210;52.284;9.892;2023-04-02T05:04:35;6.57;;;2.30;;
20101;SDS011;10210;52.284;9.892;2023-04-02T05:15:21;8.47;;;2.63;;
20101;SDS011;10210;52.284;9.892;2023-04-02T05:27:22;8.13;;;2.40;;
20101;SDS011;10210;52.284;9.892;2023-04-02T05:30:09;9.57;;;2.30;;
20101;SDS011;10210;52.284;9.892;2023-04-02T05:32:45;6.47;;;2.30;;
20101;SDS011;10210;52.284;9.892;2023-04-02T05:35:18;6.83;;;1.93;;
20101;SDS011;10210;52.284;9.892;2023-04-02T05:37:49;5.73;;;2.20;;
20101;SDS011;10210;52.284;9.892;2023-04-02T05:40:35;8.80;;;2.70;;
20101;SDS011;10210;52.284;9.892;2023-04-02T05:43:10;6.90;;;2.13;;
20101;SDS011;10210;52.284;9.892;2023-04-02T05:45:43;10.27;;;2.30;;
20101;SDS011;10210;52.284;9.892;2023-04-02T05:48:18;7.87;;;2.00;;
20101;SDS011;10210;52.284;9.892;2023-04-02T05:50:56;8.50;;;2.70;;
20101;SDS011;10210;52.284;9.892;2023-04-02T05:53:24;6.57;;;2.10;;
20101;SDS011;10210;52.284;9.892;2023-04-02T05:56:02;8.47;;;2.30;;
20101;SDS011;10210;52.284;9.892;2023-04-02T06:03:58;6.33;;;2.40;;
20101;SDS011;10210;52.284;9.892;2023-04-02T06:11:55;8.50;;;2.23;;
20101;SDS011;10210;52.284;9.892;2023-04-02T06:18:06;5.90;;;2.27;;
20101;SDS011;10210;52.284;9.892;2023-04-02T06:20:40;7.43;;;2.10;;
20101;SDS011;10210;52.284;9.892;2023-04-02T06:23:09;9.30;;;2.83;;
20101;SDS011;10210;52.284;9.892;2023-04-02T06:25:48;7.47;;;2.20;;
20101;SDS011;10210;52.284;9.892;2023-04-02T06:28:26;7.53;;;2.17;;
20101;SDS011;10210;52.284;9.892;2023-04-02T06:31:06;8.43;;;2.40;;
20101;SDS011;10210;52.284;9.892;2023-04-02T06:33:42;6.03;;;2.10;;
20101;SDS011;10210;52.284;9.892;2023-04-02T06:36:45;7.67;;;2.30;;
20101;SDS011;10210;52.284;9.892;2023-04-02T06:39:21;7.20;;;2.20;;
20101;SDS011;10210;52.284;9.892;2023-04-02T06:41:56;5.60;;;2.10;;
20101;SDS011;10210;52.284;9.892;2023-04-02T06:44:33;7.40;;;2.10;;
20101;SDS011;10210;52.284;9.892;2023-04-02T06:47:05;5.13;;;2.00;;
20101;SDS011;10210;52.284;9.892;2023-04-02T06:50:18;7.67;;;2.10;;
20101;SDS011;10210;52.284;9.892;2023-04-02T06:52:51;6.33;;;2.00;;
20101;SDS011;10210;52.284;9.892;2023-04-02T06:56:09;8.20;;;2.23;;
20101;SDS011;10210;52.284;9.892;2023-04-02T06:58:33;9.47;;;2.33;;
20101;SDS011;10210;52.284;9.892;2023-04-02T07:00:59;7.73;;;2.20;;
20101;SDS011;10210;52.284;9.892;2023-04-02T07:03:26;6.33;;;2.23;;
20101;SDS011;10210;52.284;9.892;2023-04-02T07:05:56;7.23;;;2.20;;
20101;SDS011;10210;52.284;9.892;2023-04-02T07:08:26;7.83;;;2.50;;
20101;SDS011;10210;52.284;9.892;2023-04-02T07:10:52;6.93;;;1.97;;
20101;SDS011;10210;52.284;9.892;2023-04-02T07:13:19;6.23;;;2.10;;
20101;SDS011;10210;52.284;9.892;2023-04-02T07:15:48;9.40;;;2.40;;
20101;SDS011;10210;52.284;9.892;2023-04-02T07:18:26;7.47;;;2.07;;
20101;SDS011;10210;52.284;9.892;2023-04-02T07:20:53;5.47;;;1.90;;
20101;SDS011;10210;52.284;9.892;2023-04-02T07:23:20;7.90;;;2.00;;
20101;SDS011;10210;52.284;9.892;2023-04-02T07:25:50;6.90;;;2.33;;
20101;SDS011;10210;52.284;9.892;2023-04-02T07:28:18;8.10;;;2.30;;
20101;SDS011;10210;52.284;9.892;2023-04-02T07:30:45;5.17;;;2.00;;
20101;SDS011;10210;52.284;9.892;2023-04-02T07:33:15;7.30;;;2.10;;
20101;SDS011;10210;52.284;9.892;2023-04-02T07:35:44;7.20;;;2.20;;
20101;SDS011;10210;52.284;9.892;2023-04-02T07:38:10;8.33;;;2.60;;
20101;SDS011;10210;52.284;9.892;2023-04-02T07:40:36;7.93;;;2.10;;
20101;SDS011;10210;52.284;9.892;2023-04-02T07:43:02;8.80;;;2.37;;
20101;SDS011;10210;52.284;9.892;2023-04-02T07:45:28;7.07;;;2.00;;
20101;SDS011;10210;52.284;9.892;2023-04-02T07:47:55;8.27;;;2.37;;
20101;SDS011;10210;52.284;9.892;2023-04-02T07:50:21;12.23;;;2.80;;
20101;SDS011;10210;52.284;9.892;2023-04-02T07:52:47;11.67;;;2.57;;
20101;SDS011;10210;52.284;9.892;2023-04-02T07:55:13;8.37;;;2.30;;
20101;SDS011;10210;52.284;9.892;2023-04-02T07:58:01;9.13;;;2.70;;
20101;SDS011;10210;52.284;9.892;2023-04-02T08:00:26;6.50;;;2.40;;
20101;SDS011;10210;52.284;9.892;2023-04-02T08:02:52;8.03;;;2.30;;
20101;SDS011;10210;52.284;9.892;2023-04-02T08:05:18;10.53;;;4.67;;
20101;SDS011;10210;52.284;9.892;2023-04-02T08:07:51;8.20;;;3.10;;
20101;SDS011;10210;52.284;9.892;2023-04-02T08:10:18;7.73;;;2.50;;
20101;SDS011;10210;52.284;9.892;2023-04-02T08:12:44;8.13;;;2.70;;
20101;SDS011;10210;52.284;9.892;2023-04-02T08:15:12;9.77;;;3.40;;
20101;SDS011;10210;52.284;9.892;2023-04-02T08:17:40;8.00;;;2.80;;
20101;SDS011;10210;52.284;9.892;2023-04-02T08:20:08;10.60;;;3.00;;
20101;SDS011;10210;52.284;9.892;2023-04-02T08:22:46;8.60;;;2.87;;
20101;SDS011;10210;52.284;9.892;2023-04-02T08:25:13;7.30;;;2.30;;
20101;SDS011;10210;52.284;9.892;2023-04-02T08:27:40;8.00;;;2.30;;
20101;SDS011;10210;52.284;9.892;2023-04-02T08:30:06;6.80;;;2.53;;
20101;SDS011;10210;52.284;9.892;2023-04-02T08:32:35;6.33;;;2.10;;
20101;SDS011;10210;52.284;9.892;2023-04-02T08:35:01;7.17;;;2.33;;
20101;SDS011;10210;52.284;9.892;2023-04-02T08:37:26;8.67;;;2.23;;
20101;SDS011;10210;52.284;9.892;2023-04-02T08:39:52;5.83;;;2.10;;
20101;SDS011;10210;52.284;9.892;2023-04-02T08:42:21;9.00;;;2.47;;
20101;SDS011;10210;52.284;9.892;2023-04-02T08:45:18;6.00;;;2.27;;
20101;SDS011;10210;52.284;9.892;2023-04-02T08:47:50;7.63;;;2.30;;
20101;SDS011;10210;52.284;9.892;2023-04-02T08:50:30;6.77;;;2.20;;
20101;SDS011;10210;52.284;9.892;2023-04-02T08:52:59;8.13;;;2.43;;
20101;SDS011;10210;52.284;9.892;2023-04-02T08:55:45;7.90;;;2.90;;
20101;SDS011;10210;52.284;9.892;2023-04-02T09:03:59;6.87;;;2.40;;
20101;SDS011;10210;52.284;9.892;2023-04-02T09:06:29;6.63;;;2.40;;
20101;SDS011;10210;52.284;9.892;2023-04-02T09:08:55;8.40;;;2.33;;
20101;SDS011;10210;52.284;9.892;2023-04-02T09:11:23;5.67;;;2.30;;
20101;SDS011;10210;52.284;9.892;2023-04-02T09:14:23;4.30;;;1.93;;
20101;SDS011;10210;52.284;9.892;2023-04-02T09:17:07;7.47;;;2.30;;
20101;SDS011;10210;52.284;9.892;2023-04-02T09:19:56;8.33;;;2.53;;
20101;SDS011;10210;52.284;9.892;2023-04-02T09:22:46;6.70;;;2.30;;
20101;SDS011;10210;52.284;9.892;2023-04-02T09:25:16;7.87;;;2.07;;
20101;SDS011;10210;52.284;9.892;2023-04-02T09:27:51;7.90;;;2.20;;
20101;SDS011;10210;52.284;9.892;2023-04-02T09:30:23;6.83;;;2.10;;
20101;SDS011;10210;52.284;9.892;2023-04-02T09:36:31;9.00;;;2.20;;
20101;SDS011;10210;52.284;9.892;2023-04-02T09:39:09;10.90;;;4.77;;
20101;SDS011;10210;52.284;9.892;2023-04-02T09:41:43;8.97;;;2.93;;
20101;SDS011;10210;52.284;9.892;2023-04-02T09:44:20;7.87;;;2.43;;
20101;SDS011;10210;52.284;9.892;2023-04-02T09:46:50;8.60;;;2.60;;
20101;SDS011;10210;52.284;9.892;2023-04-02T09:49:33;7.20;;;2.40;;
20101;SDS011;10210;52.284;9.892;2023-04-02T09:52:25;7.80;;;2.10;;
20101;SDS011;10210;52.284;9.892;2023-04-02T09:57:47;6.67;;;2.00;;
20101;SDS011;10210;52.284;9.892;2023-04-02T10:00:24;8.30;;;2.60;;
20101;SDS011;10210;52.284;9.892;2023-04-02T10:02:58;5.40;;;2.07;;
20101;SDS011;10210;52.284;9.892;2023-04-02T10:05:27;11.27;;;2.30;;
20101;SDS011;10210;52.284;9.892;2023-04-02T10:07:54;8.07;;;2.17;;
20101;SDS011;10210;52.284;9.892;2023-04-02T10:10:40;8.03;;;2.27;;
20101;SDS011;10210;52.284;9.892;2023-04-02T10:13:22;6.27;;;2.10;;
20101;SDS011;10210;52.284;9.892;2023-04-02T10:16:06;5.40;;;2.10;;
20101;SDS011;10210;52.284;9.892;2023-04-02T10:21:36;5.73;;;2.07;;
20101;SDS011;10210;52.284;9.892;2023-04-02T10:24:12;9.90;;;2.10;;
20101;SDS011;10210;52.284;9.892;2023-04-02T10:26:45;10.47;;;2.17;;
20101;SDS011;10210;52.284;9.892;2023-04-02T10:29:39;5.53;;;1.90;;
20101;SDS011;10210;52.284;9.892;2023-04-02T10:32:30;7.90;;;2.37;;
20101;SDS011;10210;52.284;9.892;2023-04-02T10:47:03;19.60;;;8.40;;
20101;SDS011;10210;52.284;9.892;2023-04-02T10:53:14;12.10;;;2.90;;
20101;SDS011;10210;52.284;9.892;2023-04-02T10:55:47;12.33;;;5.27;;
20101;SDS011;10210;52.284;9.892;2023-04-02T10:58:30;8.47;;;3.23;;
20101;SDS011;10210;52.284;9.892;2023-04-02T11:01:10;6.60;;;2.33;;
20101;SDS011;10210;52.284;9.892;2023-04-02T11:03:48;8.43;;;2.70;;
20101;SDS011;10210;52.284;9.892;2023-04-02T11:06:30;6.50;;;1.90;;
20101;SDS011;10210;52.284;9.892;2023-04-02T11:09:09;5.27;;;1.90;;
20101;SDS011;10210;52.284;9.892;2023-04-02T11:11:43;8.27;;;2.30;;
20101;SDS011;10210;52.284;9.892;2023-04-02T11:14:22;7.30;;;2.10;;
20101;SDS011;10210;52.284;9.892;2023-04-02T11:16:52;7.80;;;2.20;;
20101;SDS011;10210;52.284;9.892;2023-04-02T11:19:32;7.60;;;2.20;;
20101;SDS011;10210;52.284;9.892;2023-04-02T11:22:13;6.73;;;2.40;;
20101;SDS011;10210;52.284;9.892;2023-04-02T11:24:43;8.27;;;2.37;;
20101;SDS011;10210;52.284;9.892;2023-04-02T11:32:50;6.53;;;2.37;;
20101;SDS011;10210;52.284;9.892;2023-04-02T11:40:47;4.50;;;2.07;;
20101;SDS011;10210;52.284;9.892;2023-04-02T11:48:25;8.40;;;2.90;;
20101;SDS011;10210;52.284;9.892;2023-04-02T11:50:54;5.80;;;2.33;;
20101;SDS011;10210;52.284;9.892;2023-04-02T11:53:27;9.37;;;3.37;;
20101;SDS011;10210;52.284;9.892;2023-04-02T12:02:20;7.10;;;2.97;;
20101;SDS011;10210;52.284;9.892;2023-04-02T12:05:02;8.37;;;2.83;;
20101;SDS011;10210;52.284;9.892;2023-04-02T12:07:44;11.40;;;4.17;;
20101;SDS011;10210;52.284;9.892;2023-04-02T12:10:26;13.03;;;3.57;;
20101;SDS011;10210;52.284;9.892;2023-04-02T12:12:58;8.63;;;2.30;;
20101;SDS011;10210;52.284;9.892;2023-04-02T12:20:49;5.93;;;2.00;;
20101;SDS011;10210;52.284;9.892;2023-04-02T12:23:27;5.23;;;1.70;;
20101;SDS011;10210;52.284;9.892;2023-04-02T12:25:56;5.47;;;1.70;;
20101;SDS011;10210;52.284;9.892;2023-04-02T12:28:30;6.30;;;1.80;;
20101;SDS011;10210;52.284;9.892;2023-04-02T12:31:02;5.27;;;1.90;;
20101;SDS011;10210;52.284;9.892;2023-04-02T12:33:41;6.67;;;1.90;;
20101;SDS011;10210;52.284;9.892;2023-04-02T12:38:58;7.63;;;1.70;;
20101;SDS011;10210;52.284;9.892;2023-04-02T12:41:25;6.60;;;1.80;;
20101;SDS011;10210;52.284;9.892;2023-04-02T12:44:01;7.27;;;1.83;;
20101;SDS011;10210;52.284;9.892;2023-04-02T12:46:39;5.47;;;1.57;;
20101;SDS011;10210;52.284;9.892;2023-04-02T12:51:53;3.17;;;1.60;;
20101;SDS011;10210;52.284;9.892;2023-04-02T12:54:20;6.30;;;2.00;;
20101;SDS011;10210;52.284;9.892;2023-04-02T12:56:47;6.83;;;1.77;;
20101;SDS011;10210;52.284;9.892;2023-04-02T12:59:26;6.13;;;1.60;;
20101;SDS011;10210;52.284;9.892;2023-04-02T13:02:00;4.47;;;1.60;;
20101;SDS011;10210;52.284;9.892;2023-04-02T13:04:50;6.73;;;1.87;;
20101;SDS011;10210;52.284;9.892;2023-04-02T13:07:20;5.80;;;1.70;;
20101;SDS011;10210;52.284;9.892;2023-04-02T13:09:59;5.47;;;1.70;;
20101;SDS011;10210;52.284;9.892;2023-04-02T13:12:45;6.53;;;1.63;;
20101;SDS011;10210;52.284;9.892;2023-04-02T13:15:19;4.47;;;1.67;;
20101;SDS011;10210;52.284;9.892;2023-04-02T13:18:02;6.20;;;1.63;;
20101;SDS011;10210;52.284;9.892;2023-04-02T13:20:36;8.13;;;1.80;;
20101;SDS011;10210;52.284;9.892;2023-04-02T13:25:49;4.37;;;1.70;;
20101;SDS011;10210;52.284;9.892;2023-04-02T13:28:15;4.40;;;1.47;;
20101;SDS011;10210;52.284;9.892;2023-04-02T13:30:42;4.90;;;1.37;;
20101;SDS011;10210;52.284;9.892;2023-04-02T13:33:07;4.57;;;1.33;;
20101;SDS011;10210;52.284;9.892;2023-04-02T13:35:33;4.83;;;1.47;;
20101;SDS011;10210;52.284;9.892;2023-04-02T13:37:59;5.37;;;1.67;;
20101;SDS011;10210;52.284;9.892;2023-04-02T13:40:26;5.57;;;1.33;;
20101;SDS011;10210;52.284;9.892;2023-04-02T13:42:52;2.77;;;1.10;;
20101;SDS011;10210;52.284;9.892;2023-04-02T13:45:30;3.33;;;1.20;;
20101;SDS011;10210;52.284;9.892;2023-04-02T13:48:02;5.00;;;1.50;;
20101;SDS011;10210;52.284;9.892;2023-04-02T13:50:30;6.53;;;1.43;;
20101;SDS011;10210;52.284;9.892;2023-04-02T13:53:05;3.07;;;1.07;;
20101;SDS011;10210;52.284;9.892;2023-04-02T13:55:37;4.00;;;1.40;;
20101;SDS011;10210;52.284;9.892;2023-04-02T13:58:07;4.43;;;1.47;;
20101;SDS011;10210;52.284;9.892;2023-04-02T14:00:35;3.57;;;1.03;;
20101;SDS011;10210;52.284;9.892;2023-04-02T14:03:05;5.90;;;1.43;;
20101;SDS011;10210;52.284;9.892;2023-04-02T14:05:47;4.67;;;1.27;;
20101;SDS011;10210;52.284;9.892;2023-04-02T14:14:25;3.40;;;1.00;;
20101;SDS011;10210;52.284;9.892;2023-04-02T14:17:08;4.23;;;1.03;;
20101;SDS011;10210;52.284;9.892;2023-04-02T14:23:19;3.47;;;1.27;;
20101;SDS011;10210;52.284;9.892;2023-04-02T14:26:13;3.93;;;0.90;;
20101;SDS011;10210;52.284;9.892;2023-04-02T14:29:20;4.83;;;1.40;;
20101;SDS011;10210;52.284;9.892;2023-04-02T14:35:00;6.47;;;1.40;;
20101;SDS011;10210;52.284;9.892;2023-04-02T14:40:31;5.30;;;1.60;;
20101;SDS011;10210;52.284;9.892;2023-04-02T14:43:23;4.77;;;1.30;;
20101;SDS011;10210;52.284;9.892;2023-04-02T14:46:01;4.63;;;1.20;;
20101;SDS011;10210;52.284;9.892;2023-04-02T14:57:09;4.63;;;1.33;;
20101;SDS011;10210;52.284;9.892;2023-04-02T14:59:59;6.13;;;1.30;;
20101;SDS011;10210;52.284;9.892;2023-04-02T15:08:21;5.00;;;1.30;;
20101;SDS011;10210;52.284;9.892;2023-04-02T15:11:30;3.27;;;1.40;;
20101;SDS011;10210;52.284;9.892;2023-04-02T15:16:38;4.57;;;1.20;;
20101;SDS011;10210;52.284;9.892;2023-04-02T15:19:07;5.10;;;1.40;;
20101;SDS011;10210;52.284;9.892;2023-04-02T15:21:58;5.70;;;1.27;;
20101;SDS011;10210;52.284;9.892;2023-04-02T15:24:46;3.50;;;1.23;;
20101;SDS011;10210;52.284;9.892;2023-04-02T15:27:50;2.60;;;1.10;;
20101;SDS011;10210;52.284;9.892;2023-04-02T15:30:37;5.97;;;1.80;;
20101;SDS011;10210;52.284;9.892;2023-04-02T15:42:14;4.23;;;1.30;;
20101;SDS011;10210;52.284;9.892;2023-04-02T15:45:01;5.70;;;1.60;;
20101;SDS011;10210;52.284;9.892;2023-04-02T15:47:44;3.80;;;1.30;;
20101;SDS011;10210;52.284;9.892;2023-04-02T15:53:45;5.23;;;1.30;;
20101;SDS011;10210;52.284;9.892;2023-04-02T15:57:08;5.13;;;1.57;;
20101;SDS011;10210;52.284;9.892;2023-04-02T16:02:48;5.73;;;1.30;;
20101;SDS011;10210;52.284;9.892;2023-04-02T16:11:30;9.30;;;2.90;;
20101;SDS011;10210;52.284;9.892;2023-04-02T16:16:54;6.67;;;1.60;;
20101;SDS011;10210;52.284;9.892;2023-04-02T16:19:33;6.10;;;1.63;;
20101;SDS011;10210;52.284;9.892;2023-04-02T16:22:07;5.70;;;1.47;;
20101;SDS011;10210;52.284;9.892;2023-04-02T16:24:48;4.60;;;1.30;;
20101;SDS011;10210;52.284;9.892;2023-04-02T16:30:25;11.73;;;3.30;;
20101;SDS011;10210;52.284;9.892;2023-04-02T16:35:40;11.73;;;3.57;;
20101;SDS011;10210;52.284;9.892;2023-04-02T16:41:36;5.97;;;2.03;;
20101;SDS011;10210;52.284;9.892;2023-04-02T16:44:31;7.70;;;2.40;;
20101;SDS011;10210;52.284;9.892;2023-04-02T16:47:46;5.43;;;1.80;;
20101;SDS011;10210;52.284;9.892;2023-04-02T16:56:26;4.90;;;1.30;;
20101;SDS011;10210;52.284;9.892;2023-04-02T16:59:32;6.37;;;1.67;;
20101;SDS011;10210;52.284;9.892;2023-04-02T17:05:28;5.17;;;1.40;;
20101;SDS011;10210;52.284;9.892;2023-04-02T17:08:08;5.37;;;1.50;;
20101;SDS011;10210;52.284;9.892;2023-04-02T17:11:05;4.97;;;1.50;;
20101;SDS011;10210;52.284;9.892;2023-04-02T17:13:51;2.80;;;1.30;;
20101;SDS011;10210;52.284;9.892;2023-04-02T17:16:42;7.97;;;1.70;;
20101;SDS011;10210;52.284;9.892;2023-04-02T17:19:11;6.37;;;1.70;;
20101;SDS011;10210;52.284;9.892;2023-04-02T17:21:41;4.63;;;1.57;;
20101;SDS011;10210;52.284;9.892;2023-04-02T17:27:12;4.73;;;1.53;;
20101;SDS011;10210;52.284;9.892;2023-04-02T17:29:51;7.27;;;1.93;;
20101;SDS011;10210;52.284;9.892;2023-04-02T17:32:28;6.30;;;1.70;;
20101;SDS011;10210;52.284;9.892;2023-04-02T17:35:01;5.80;;;1.50;;
20101;SDS011;10210;52.284;9.892;2023-04-02T17:37:57;5.60;;;1.40;;
20101;SDS011;10210;52.284;9.892;2023-04-02T17:40:55;5.17;;;1.50;;
20101;SDS011;10210;52.284;9.892;2023-04-02T17:43:51;7.97;;;1.70;;
20101;SDS011;10210;52.284;9.892;2023-04-02T17:46:56;5.43;;;1.60;;
20101;SDS011;10210;52.284;9.892;2023-04-02T17:52:50;4.93;;;1.60;;
20101;SDS011;10210;52.284;9.892;2023-04-02T18:04:33;3.90;;;1.50;;
20101;SDS011;10210;52.284;9.892;2023-04-02T18:07:20;5.97;;;1.57;;
20101;SDS011;10210;52.284;9.892;2023-04-02T18:12:57;5.20;;;1.77;;
20101;SDS011;10210;52.284;9.892;2023-04-02T18:15:57;5.40;;;1.80;;
20101;SDS011;10210;52.284;9.892;2023-04-02T18:19:14;4.33;;;1.60;;
20101;SDS011;10210;52.284;9.892;2023-04-02T18:27:39;4.37;;;1.50;;
20101;SDS011;10210;52.284;9.892;2023-04-02T18:48:54;7.30;;;1.50;;
20101;SDS011;10210;52.284;9.892;2023-04-02T18:51:44;7.43;;;1.60;;
20101;SDS011;10210;52.284;9.892;2023-04-02T18:54:22;6.60;;;1.60;;
20101;SDS011;10210;52.284;9.892;2023-04-02T18:57:10;5.43;;;1.73;;
20101;SDS011;10210;52.284;9.892;2023-04-02T18:59:54;6.30;;;1.60;;
20101;SDS011;10210;52.284;9.892;2023-04-02T19:02:39;5.63;;;1.70;;
20101;SDS011;10210;52.284;9.892;2023-04-02T19:05:14;5.00;;;1.73;;
20101;SDS011;10210;52.284;9.892;2023-04-02T19:10:41;6.23;;;1.80;;
20101;SDS011;10210;52.284;9.892;2023-04-02T19:13:14;7.33;;;2.13;;
20101;SDS011;10210;52.284;9.892;2023-04-02T19:21:26;6.53;;;1.93;;
20101;SDS011;10210;52.284;9.892;2023-04-02T19:24:28;6.77;;;1.87;;
20101;SDS011;10210;52.284;9.892;2023-04-02T19:36:27;7.93;;;2.10;;
20101;SDS011;10210;52.284;9.892;2023-04-02T19:42:43;5.07;;;1.90;;
20101;SDS011;10210;52.284;9.892;2023-04-02T19:48:14;6.20;;;2.00;;
20101;SDS011;10210;52.284;9.892;2023-04-02T19:50:48;6.23;;;2.00;;
20101;SDS011;10210;52.284;9.892;2023-04-02T19:53:15;6.33;;;2.10;;
20101;SDS011;10210;52.284;9.892;2023-04-02T19:55:41;7.20;;;2.10;;
20101;SDS011;10210;52.284;9.892;2023-04-02T19:58:22;6.07;;;1.97;;
20101;SDS011;10210;52.284;9.892;2023-04-02T20:00:54;7.67;;;2.20;;
20101;SDS011;10210;52.284;9.892;2023-04-02T20:03:20;6.13;;;1.90;;
20101;SDS011;10210;52.284;9.892;2023-04-02T20:05:46;5.80;;;1.80;;
20101;SDS011;10210;52.284;9.892;2023-04-02T20:08:12;5.00;;;1.97;;
20101;SDS011;10210;52.284;9.892;2023-04-02T20:10:38;8.87;;;2.10;;
20101;SDS011;10210;52.284;9.892;2023-04-02T20:13:04;4.90;;;1.80;;
20101;SDS011;10210;52.284;9.892;2023-04-02T20:15:29;6.37;;;1.90;;
20101;SDS011;10210;52.284;9.892;2023-04-02T20:17:55;7.87;;;2.10;;
20101;SDS011;10210;52.284;9.892;2023-04-02T20:20:21;6.23;;;1.97;;
20101;SDS011;10210;52.284;9.892;2023-04-02T20:22:47;5.93;;;2.00;;
20101;SDS011;10210;52.284;9.892;2023-04-02T20:25:13;7.57;;;1.97;;
20101;SDS011;10210;52.284;9.892;2023-04-02T20:27:39;5.37;;;2.03;;
20101;SDS011;10210;52.284;9.892;2023-04-02T20:30:05;7.23;;;1.97;;
20101;SDS011;10210;52.284;9.892;2023-04-02T20:32:32;5.67;;;1.80;;
20101;SDS011;10210;52.284;9.892;2023-04-02T20:35:01;7.90;;;2.00;;
20101;SDS011;10210;52.284;9.892;2023-04-02T20:37:27;6.43;;;2.13;;
20101;SDS011;10210;52.284;9.892;2023-04-02T20:39:53;6.93;;;2.20;;
20101;SDS011;10210;52.284;9.892;2023-04-02T20:42:20;7.47;;;1.83;;
20101;SDS011;10210;52.284;9.892;2023-04-02T20:44:46;11.30;;;2.53;;